createdAt,value
2019-01-02T00:03:33.196Z,102175.47
2019-01-02T00:06:22.076Z,102164.50
2019-01-02T00:09:11.181Z,102175.73
2019-01-02T00:11:53.018Z,102180.93
2019-01-02T00:14:41.948Z,102169.14
2019-01-02T00:17:30.930Z,102179.28
2019-01-02T00:20:00.691Z,102190.77
2019-01-02T00:22:49.534Z,102192.70
2019-01-02T00:25:38.409Z,102192.42
2019-01-02T00:28:28.989Z,102110.59
2019-01-02T00:31:17.803Z,102131.74
2019-01-02T00:34:06.634Z,102198.70
2019-01-02T00:36:55.486Z,102194.31
2019-01-02T00:39:44.679Z,102192.42
2019-01-02T00:42:33.482Z,102187.75
2019-01-02T00:45:23.358Z,102192.13
2019-01-02T00:48:12.833Z,102167.11
2019-01-02T00:51:03.376Z,102199.01
2019-01-02T00:53:52.195Z,102194.06
2019-01-02T00:56:41.115Z,102197.08
2019-01-02T00:59:31.692Z,102133.09
2019-01-02T01:02:13.492Z,102201.20
2019-01-02T01:05:02.365Z,102211.08
2019-01-02T01:07:52.946Z,102202.86
2019-01-02T01:10:41.800Z,102207.24
2019-01-02T01:13:30.617Z,102192.99
2019-01-02T01:16:21.190Z,102192.74
2019-01-02T01:19:10.054Z,102214.36
2019-01-02T01:21:58.900Z,102213.27
2019-01-02T01:24:47.744Z,102155.03
2019-01-02T01:27:31.225Z,102226.71
2019-01-02T01:30:20.451Z,102222.08
2019-01-02T01:33:09.254Z,102227.27
2019-01-02T01:35:50.533Z,102242.33
2019-01-02T01:38:39.522Z,102234.12
2019-01-02T01:41:28.432Z,102231.38
2019-01-02T01:44:17.634Z,102228.64
2019-01-02T01:47:06.500Z,102233.58
2019-01-02T01:49:55.385Z,102241.80
2019-01-02T01:52:44.222Z,102237.97
2019-01-02T01:55:33.031Z,102249.20
2019-01-02T01:58:23.674Z,102237.19
2019-01-02T02:01:14.200Z,102241.82
2019-01-02T02:04:03.022Z,102252.24
2019-01-02T02:06:53.654Z,102248.41
2019-01-02T02:09:35.242Z,102254.17
2019-01-02T02:12:24.053Z,102254.45
2019-01-02T02:15:14.681Z,102247.61
2019-01-02T02:18:03.664Z,102254.17
2019-01-02T02:20:45.170Z,102259.40
2019-01-02T02:23:14.666Z,102265.41
2019-01-02T02:26:05.286Z,102265.96
2019-01-02T02:28:55.843Z,102275.55
2019-01-02T02:31:37.918Z,102263.22
2019-01-02T02:34:26.761Z,102272.25
2019-01-02T02:37:15.620Z,102263.75
2019-01-02T02:40:25.355Z,102276.89
2019-01-02T02:43:14.219Z,102272.51
2019-01-02T02:46:03.078Z,102271.39
2019-01-02T02:48:53.638Z,102275.50
2019-01-02T02:51:44.198Z,102274.41
2019-01-02T02:54:33.216Z,102272.48
2019-01-02T02:57:22.062Z,102266.72
2019-01-02T03:00:31.871Z,102265.08
2019-01-02T03:03:22.454Z,102270.27
2019-01-02T03:06:11.301Z,102275.22
2019-01-02T03:09:00.138Z,102274.38
2019-01-02T03:11:41.741Z,102276.03
2019-01-02T03:14:30.540Z,102265.61
2019-01-02T03:17:19.756Z,102252.73
2019-01-02T03:20:29.594Z,102262.84
2019-01-02T03:23:18.449Z,102271.30
2019-01-02T03:26:08.992Z,102276.22
2019-01-02T03:28:57.822Z,102275.41
2019-01-02T03:31:48.330Z,102271.30
2019-01-02T03:34:37.416Z,102282.82
2019-01-02T03:37:26.288Z,102276.78
2019-01-02T03:40:15.273Z,102214.14
2019-01-02T03:43:04.189Z,102251.27
2019-01-02T03:45:53.009Z,102269.38
2019-01-02T03:48:41.887Z,102266.64
2019-01-02T03:51:30.789Z,102266.08
2019-01-02T03:54:19.602Z,102271.00
2019-01-02T03:57:08.522Z,102276.47
2019-01-02T03:59:57.336Z,102277.56
2019-01-02T04:02:46.234Z,102278.37
2019-01-02T04:05:35.084Z,102279.18
2019-01-02T04:08:23.960Z,102281.05
2019-01-02T04:11:12.832Z,102283.47
2019-01-02T04:13:54.694Z,102283.68
2019-01-02T04:16:43.566Z,102280.34
2019-01-02T04:19:32.385Z,102278.13
2019-01-02T04:22:21.219Z,102280.55
2019-01-02T04:25:10.047Z,102189.81
2019-01-02T04:27:58.843Z,102273.91
2019-01-02T04:30:47.672Z,102271.70
2019-01-02T04:33:36.679Z,102198.50
2019-01-02T04:36:25.480Z,102283.16
2019-01-02T04:39:14.351Z,102247.41
2019-01-02T04:42:03.181Z,102281.80
2019-01-02T04:44:52.028Z,102269.20
2019-01-02T04:47:41.099Z,102282.08
2019-01-02T04:50:29.942Z,102279.38
2019-01-02T04:53:18.735Z,102286.23
2019-01-02T04:56:07.580Z,102287.10
2019-01-02T04:58:56.383Z,102283.28
2019-01-02T05:01:45.221Z,102284.94
2019-01-02T05:04:34.082Z,102221.14
2019-01-02T05:07:22.894Z,102290.44
2019-01-02T05:13:20.977Z,102296.52
2019-01-02T05:16:09.780Z,102294.87
2019-01-02T05:18:58.695Z,102294.63
2019-01-02T05:21:40.814Z,102301.47
2019-01-02T05:24:29.609Z,102308.88
2019-01-02T05:27:18.445Z,102308.06
2019-01-02T05:30:26.554Z,102305.89
2019-01-02T05:33:15.419Z,102316.34
2019-01-02T05:36:04.291Z,102313.89
2019-01-02T05:38:53.135Z,102310.88
2019-01-02T05:41:41.984Z,102319.64
2019-01-02T05:44:30.817Z,102312.24
2019-01-02T05:47:19.628Z,102318.00
2019-01-02T05:50:09.509Z,102321.58
2019-01-02T05:52:58.339Z,102302.31
2019-01-02T05:55:47.251Z,102264.09
2019-01-02T05:58:36.178Z,102325.68
2019-01-02T06:01:24.998Z,102329.78
2019-01-02T06:04:13.824Z,102328.42
2019-01-02T06:07:02.652Z,102334.17
2019-01-02T06:09:51.485Z,102331.72
2019-01-02T06:12:40.303Z,102341.58
2019-01-02T06:15:22.138Z,102332.28
2019-01-02T06:18:10.978Z,102341.05
2019-01-02T06:20:59.776Z,102342.98
2019-01-02T06:23:48.695Z,102348.74
2019-01-02T06:26:37.509Z,102312.17
2019-01-02T06:29:26.334Z,102342.98
2019-01-02T06:32:15.203Z,102270.93
2019-01-02T06:34:57.359Z,102349.55
2019-01-02T06:37:46.255Z,102333.65
2019-01-02T06:40:35.057Z,102342.39
2019-01-02T06:43:23.902Z,102253.80
2019-01-02T06:46:12.734Z,102336.27
2019-01-02T06:49:01.525Z,102274.88
2019-01-02T06:51:50.355Z,102352.34
2019-01-02T06:54:39.199Z,102359.41
2019-01-02T06:57:27.975Z,102361.30
2019-01-02T07:00:37.741Z,102354.98
2019-01-02T07:03:26.564Z,102364.84
2019-01-02T07:06:15.364Z,102374.94
2019-01-02T07:09:24.951Z,102379.84
2019-01-02T07:12:13.776Z,102375.78
2019-01-02T07:14:55.701Z,102386.73
2019-01-02T07:17:44.548Z,102391.12
2019-01-02T07:20:33.470Z,102393.09
2019-01-02T07:23:22.282Z,102396.13
2019-01-02T07:25:51.820Z,102399.99
2019-01-02T07:28:40.629Z,102406.31
2019-01-02T07:31:29.458Z,102402.49
2019-01-02T07:34:19.865Z,102404.98
2019-01-02T07:37:29.737Z,102419.80
2019-01-02T07:40:57.281Z,102420.08
2019-01-02T07:44:24.803Z,102346.59
2019-01-02T07:47:52.422Z,102428.57
2019-01-02T07:51:19.922Z,102420.36
2019-01-02T07:54:29.740Z,102440.89
2019-01-02T07:57:57.257Z,102435.70
2019-01-02T08:01:06.979Z,102426.64
2019-01-02T08:04:34.490Z,102433.24
2019-01-02T08:07:44.249Z,102451.04
2019-01-02T08:11:11.733Z,102452.98
2019-01-02T08:14:39.299Z,102448.34
2019-01-02T08:17:49.043Z,102371.49
2019-01-02T08:20:58.802Z,102457.97
2019-01-02T08:24:08.551Z,102430.95
2019-01-02T08:27:36.095Z,102472.51
2019-01-02T08:31:03.599Z,102463.77
2019-01-02T08:34:13.394Z,102458.86
2019-01-02T08:37:40.931Z,102459.16
2019-01-02T08:41:08.470Z,102463.30
2019-01-02T08:44:35.977Z,102461.41
2019-01-02T08:48:03.495Z,102457.87
2019-01-02T08:51:30.990Z,102453.23
2019-01-02T08:54:40.791Z,102462.30
2019-01-02T08:58:08.276Z,102478.73
2019-01-02T09:04:55.331Z,102476.03
2019-01-02T09:08:05.099Z,102480.46
2019-01-02T09:11:14.861Z,102491.42
2019-01-02T09:14:42.346Z,102495.29
2019-01-02T09:18:09.870Z,102493.12
2019-01-02T09:21:37.361Z,102486.86
2019-01-02T09:28:24.310Z,102511.31
2019-01-02T09:31:51.801Z,102513.81
2019-01-02T09:35:01.605Z,102487.35
2019-01-02T09:38:11.403Z,102511.95
2019-01-02T09:41:21.148Z,102505.95
2019-01-02T09:44:30.893Z,102516.11
2019-01-02T09:47:58.489Z,102524.09
2019-01-02T09:51:08.231Z,102522.47
2019-01-02T09:58:16.894Z,102524.43
2019-01-02T10:01:26.772Z,102537.86
2019-01-02T10:04:36.476Z,102525.80
2019-01-02T10:07:46.215Z,102519.23
2019-01-02T10:10:56.033Z,102524.19
2019-01-02T10:14:05.817Z,102463.93
2019-01-02T10:16:49.636Z,102527.24
2019-01-02T10:19:59.427Z,102527.24
2019-01-02T10:23:26.983Z,102527.30
2019-01-02T10:26:54.591Z,102524.87
2019-01-02T10:30:26.323Z,102521.87
2019-01-02T10:33:53.823Z,102524.13
2019-01-02T10:37:21.322Z,102515.64
2019-01-02T10:40:53.088Z,102524.73
2019-01-02T10:44:02.931Z,102527.81
2019-01-02T10:47:14.029Z,102517.39
2019-01-02T10:50:41.624Z,102539.37
2019-01-02T10:53:42.768Z,102528.42
2019-01-02T10:56:52.509Z,102530.06
2019-01-02T11:00:02.260Z,102521.04
2019-01-02T11:03:29.798Z,102533.41
2019-01-02T11:06:13.437Z,102531.53
2019-01-02T11:09:23.242Z,102531.80
2019-01-02T11:12:33.131Z,102530.16
2019-01-02T11:15:42.871Z,102533.99
2019-01-02T11:19:10.392Z,102522.73
2019-01-02T11:22:20.717Z,102530.69
2019-01-02T11:25:38.203Z,102534.53
2019-01-02T11:28:48.027Z,102533.44
2019-01-02T11:31:57.794Z,102532.31
2019-01-02T11:35:27.019Z,102534.25
2019-01-02T11:38:36.846Z,102532.88
2019-01-02T11:41:46.620Z,102537.28
2019-01-02T11:45:14.135Z,102531.80
2019-01-02T11:48:03.052Z,102530.45
2019-01-02T11:50:51.887Z,102530.73
2019-01-02T11:53:40.722Z,102521.11
2019-01-02T11:56:10.248Z,102522.77
2019-01-02T11:58:59.195Z,102521.95
2019-01-02T12:01:48.014Z,102527.16
2019-01-02T12:04:17.533Z,102529.34
2019-01-02T12:06:58.798Z,102518.92
2019-01-02T12:09:28.363Z,102519.22
2019-01-02T12:12:17.275Z,102524.70
2019-01-02T12:15:27.080Z,102531.33
2019-01-02T12:17:56.664Z,102519.81
2019-01-02T12:20:45.465Z,102515.44
2019-01-02T12:23:34.322Z,102485.48
2019-01-02T12:26:23.154Z,102507.24
2019-01-02T12:29:11.986Z,102512.73
2019-01-02T12:32:00.804Z,102506.43
2019-01-02T12:34:49.673Z,102508.36
2019-01-02T12:37:19.244Z,102513.85
2019-01-02T12:40:08.372Z,102520.17
2019-01-02T12:42:57.226Z,102514.13
2019-01-02T12:45:46.217Z,102511.10
2019-01-02T12:48:15.868Z,102516.32
2019-01-02T12:50:45.449Z,102538.28
2019-01-02T12:53:34.279Z,102538.85
2019-01-02T12:56:23.144Z,102530.88
2019-01-02T12:59:32.881Z,102517.64
2019-01-02T13:02:42.814Z,102526.48
2019-01-02T13:05:52.552Z,102527.01
2019-01-02T13:09:20.107Z,102522.08
2019-01-02T13:12:29.899Z,102528.67
2019-01-02T13:15:57.420Z,102534.72
2019-01-02T13:19:07.238Z,102504.98
2019-01-02T13:22:16.994Z,102535.55
2019-01-02T13:25:26.761Z,102529.78
2019-01-02T13:28:54.295Z,102540.49
2019-01-02T13:32:04.032Z,102545.17
2019-01-02T13:35:13.826Z,102557.84
2019-01-02T13:38:23.599Z,102558.13
2019-01-02T13:41:55.404Z,102551.23
2019-01-02T13:45:05.129Z,102551.50
2019-01-02T13:48:32.665Z,102511.59
2019-01-02T13:51:42.402Z,102561.38
2019-01-02T13:54:31.246Z,102518.17
2019-01-02T13:57:20.047Z,102570.45
2019-01-02T14:00:01.492Z,102569.90
2019-01-02T14:02:50.392Z,102571.00
2019-01-02T14:05:39.533Z,102578.69
2019-01-02T14:08:28.422Z,102580.58
2019-01-02T14:11:17.344Z,102586.88
2019-01-02T14:14:06.277Z,102586.85
2019-01-02T14:16:55.191Z,102596.47
2019-01-02T14:19:44.006Z,102594.23
2019-01-02T14:22:32.950Z,102592.84
2019-01-02T14:25:21.773Z,102609.58
2019-01-02T14:28:10.579Z,102611.18
2019-01-02T14:30:59.443Z,102609.53
2019-01-02T14:33:48.325Z,102611.69
2019-01-02T14:36:37.242Z,102615.25
2019-01-02T14:39:26.065Z,102622.38
2019-01-02T14:42:14.928Z,102622.59
2019-01-02T14:45:03.913Z,102622.31
2019-01-02T14:47:52.750Z,102541.55
2019-01-02T14:50:34.201Z,102550.02
2019-01-02T14:53:03.690Z,102635.95
2019-01-02T14:55:52.502Z,102628.24
2019-01-02T14:58:41.343Z,102635.07
2019-01-02T15:01:30.231Z,102638.06
2019-01-02T15:04:19.120Z,102636.34
2019-01-02T15:07:07.964Z,102634.09
2019-01-02T15:09:56.906Z,102568.43
2019-01-02T15:12:45.827Z,102638.94
2019-01-02T15:15:34.658Z,102635.03
2019-01-02T15:18:23.497Z,102637.45
2019-01-02T15:21:12.308Z,102643.70
2019-01-02T15:23:53.953Z,102642.84
2019-01-02T15:26:42.770Z,102646.06
2019-01-02T15:29:31.633Z,102654.20
2019-01-02T15:32:01.145Z,102657.98
2019-01-02T15:34:49.979Z,102663.40
2019-01-02T15:37:38.843Z,102651.53
2019-01-02T15:40:27.678Z,102658.58
2019-01-02T15:43:16.613Z,102659.90
2019-01-02T15:46:05.503Z,102671.60
2019-01-02T15:48:54.319Z,102668.23
2019-01-02T15:51:43.233Z,102666.79
2019-01-02T15:54:32.091Z,102675.70
2019-01-02T15:57:20.899Z,102678.37
2019-01-02T15:59:50.493Z,102680.47
2019-01-02T16:02:39.291Z,102692.67
2019-01-02T16:05:28.151Z,102692.55
2019-01-02T16:08:17.009Z,102698.75
2019-01-02T16:10:46.496Z,102704.37
2019-01-02T16:13:28.498Z,102712.71
2019-01-02T16:16:17.293Z,102710.69
2019-01-02T16:19:06.235Z,102719.03
2019-01-02T16:21:55.112Z,102716.66
2019-01-02T16:24:43.948Z,102718.67
2019-01-02T16:27:13.482Z,102717.98
2019-01-02T16:30:02.274Z,102726.27
2019-01-02T16:32:51.130Z,102724.20
2019-01-02T16:35:40.044Z,102677.08
2019-01-02T16:38:28.901Z,102739.63
2019-01-02T16:41:17.711Z,102747.08
2019-01-02T16:44:06.577Z,102744.16
2019-01-02T16:46:55.396Z,102745.32
2019-01-02T16:49:44.334Z,102752.53
2019-01-02T16:52:33.265Z,102754.79
2019-01-02T16:55:22.053Z,102753.73
2019-01-02T16:57:51.576Z,102665.84
2019-01-02T17:00:40.684Z,102752.77
2019-01-02T17:03:29.532Z,102756.39
2019-01-02T17:06:18.413Z,102698.51
2019-01-02T17:09:07.950Z,102705.03
2019-01-02T17:11:37.447Z,102761.11
2019-01-02T17:14:26.264Z,102758.14
2019-01-02T17:16:55.843Z,102760.40
2019-01-02T17:19:44.691Z,102761.48
2019-01-02T17:22:33.613Z,102758.28
2019-01-02T17:25:03.197Z,102712.86
2019-01-02T17:27:52.029Z,102768.17
2019-01-02T17:30:40.960Z,102769.39
2019-01-02T17:33:29.881Z,102758.83
2019-01-02T17:36:18.794Z,102759.16
2019-01-02T17:39:07.905Z,102770.69
2019-01-02T17:41:56.719Z,102774.03
2019-01-02T17:44:45.597Z,102774.95
2019-01-02T17:47:34.401Z,102786.76
2019-01-02T17:50:23.270Z,102787.67
2019-01-02T17:53:12.193Z,102766.59
2019-01-02T17:56:01.046Z,102787.59
2019-01-02T17:58:49.897Z,102793.71
2019-01-02T18:01:38.781Z,102792.75
2019-01-02T18:04:27.645Z,102799.41
2019-01-02T18:07:16.498Z,102798.19
2019-01-02T18:13:20.554Z,102806.11
2019-01-02T18:16:09.470Z,102806.71
2019-01-02T18:18:58.356Z,102815.63
2019-01-02T18:21:47.158Z,102812.75
2019-01-02T18:24:36.078Z,102817.58
2019-01-02T18:27:17.448Z,102810.93
2019-01-02T18:30:27.326Z,102819.51
2019-01-02T18:32:56.802Z,102821.31
2019-01-02T18:35:45.645Z,102822.06
2019-01-02T18:38:15.105Z,102821.70
2019-01-02T18:41:03.959Z,102819.48
2019-01-02T18:43:52.853Z,102826.53
2019-01-02T18:46:41.697Z,102830.52
2019-01-02T18:49:30.580Z,102828.84
2019-01-02T18:52:19.530Z,102821.68
2019-01-02T18:55:08.488Z,102826.51
2019-01-02T18:57:57.363Z,102836.47
2019-01-02T19:00:46.258Z,102833.66
2019-01-02T19:03:35.097Z,102835.45
2019-01-02T19:06:23.984Z,102843.00
2019-01-02T19:09:12.777Z,102847.83
2019-01-02T19:12:01.765Z,102852.34
2019-01-02T19:14:50.601Z,102765.16
2019-01-02T19:17:39.482Z,102853.54
2019-01-02T19:20:28.416Z,102858.56
2019-01-02T19:23:10.113Z,102862.88
2019-01-02T19:25:59.129Z,102863.63
2019-01-02T19:28:47.959Z,102814.94
2019-01-02T19:31:36.876Z,102861.55
2019-01-02T19:34:25.715Z,102861.79
2019-01-02T19:37:14.568Z,102865.77
2019-01-02T19:40:03.645Z,102863.59
2019-01-02T19:42:52.453Z,102869.12
2019-01-02T19:45:22.113Z,102863.08
2019-01-02T19:48:11.103Z,102870.92
2019-01-02T19:50:59.959Z,102870.30
2019-01-02T19:53:48.811Z,102866.23
2019-01-02T19:56:37.736Z,102867.59
2019-01-02T19:59:26.643Z,102867.69
2019-01-02T20:02:15.493Z,102879.98
2019-01-02T20:08:32.891Z,102875.38
2019-01-02T20:11:21.813Z,102868.02
2019-01-02T20:14:10.718Z,102869.54
2019-01-02T20:16:59.570Z,102781.66
2019-01-02T20:19:40.899Z,102876.27
2019-01-02T20:22:29.782Z,102875.31
2019-01-02T20:25:18.751Z,102873.52
2019-01-02T20:28:00.253Z,102854.89
2019-01-02T20:30:49.106Z,102851.49
2019-01-02T20:33:38.056Z,102858.15
2019-01-02T20:36:26.949Z,102858.62
2019-01-02T20:38:56.529Z,102857.66
2019-01-02T20:41:45.464Z,102851.02
2019-01-02T20:44:34.337Z,102858.53
2019-01-02T20:47:23.275Z,102854.30
2019-01-02T20:50:12.067Z,102816.77
2019-01-02T20:53:00.956Z,102856.19
2019-01-02T20:55:49.763Z,102849.48
2019-01-02T20:58:38.599Z,102849.86
2019-01-02T21:01:27.426Z,102850.16
2019-01-02T21:04:16.287Z,102834.98
2019-01-02T21:07:05.170Z,102840.42
2019-01-02T21:09:54.004Z,102840.19
2019-01-02T21:12:42.831Z,102772.95
2019-01-02T21:15:31.671Z,102841.48
2019-01-02T21:18:20.645Z,102836.48
2019-01-02T21:21:02.492Z,102828.47
2019-01-02T21:23:51.279Z,102846.30
2019-01-02T21:26:40.204Z,102851.58
2019-01-02T21:29:29.068Z,102850.88
2019-01-02T21:32:17.966Z,102847.69
2019-01-02T21:35:07.073Z,102843.97
2019-01-02T21:37:48.775Z,102848.42
2019-01-02T21:40:37.709Z,102836.23
2019-01-02T21:43:26.630Z,102769.17
2019-01-02T21:46:15.468Z,102829.86
2019-01-02T21:48:45.049Z,102831.55
2019-01-02T21:51:33.973Z,102838.42
2019-01-02T21:54:22.896Z,102846.91
2019-01-02T21:57:11.452Z,102848.30
2019-01-02T22:00:00.393Z,102839.67
2019-01-02T22:02:49.255Z,102839.50
2019-01-02T22:05:38.256Z,102837.66
2019-01-02T22:08:27.067Z,102838.03
2019-01-02T22:11:15.918Z,102838.36
2019-01-02T22:14:04.885Z,102776.86
2019-01-02T22:16:53.814Z,102746.17
2019-01-02T22:19:42.750Z,102789.32
2019-01-02T22:22:31.685Z,102846.41
2019-01-02T22:25:20.611Z,102845.38
2019-01-02T22:28:09.550Z,102847.39
2019-01-02T22:30:58.514Z,102848.53
2019-01-02T22:39:32.141Z,102862.47
2019-01-02T22:45:24.108Z,102822.30
